This demonstration page uses our WeatherBlox Daily Observations layout. Learn more.

41.55636, -103.73856

Hourly Observations for February 26, 2020

Temp ( °F °C ) Dew Point ( °F °C ) Humidity (%) Winds ( mph kmh ) Pressure ( in mb ) Visibility ( mi km ) Precip ( " mm )
12:58 am 00:58 Windy with Snow Showers Likely 22 -5.6 13 -10.4 69 69 N 20 31 30.62 1037 10 16.0934 0 0
1:58 am 01:58 Mostly Cloudy 21 -6.1 13 -10.6 71 71 N 12 19 30.63 1037 10 16.0934 0 0
3:58 am 03:58 Clear 8 -13.1 5 -14.9 87 87 SW 3 6 30.68 1039 10 16.0934 0 0
4:58 am 04:58 Clear 8 -13.3 3 -15.9 81 81 WSW 6 9 30.67 1039 10 16.0934 0 0
5:58 am 05:58 Mostly Cloudy 7 -13.8 2 -16.8 78 78 SW 6 9 30.67 1039 10 16.0934 0 0
6:58 am 06:58 Mostly Clear 6 -14.2 1 -17.1 79 79 WSW 6 9 30.64 1038 10 16.0934 0 0
7:58 am 07:58 Clear 6 -14.7 1 -17.1 82 82 W 3 6 30.63 1037 10 16.0934 0 0
9:56 am 09:56 Clear 2 -16.4 -2 -19.1 80 80 WSW 6 9 30.58 1036 10 16.0934 0 0
10:56 am 10:56 Clear 4 -15.3 -2 -18.8 75 75 WSW 3 6 30.56 1035 10 16.0934 0 0
12:57 pm 12:57 Clear 6 -14.5 -1 -18.1 74 74 WSW 5 7 30.53 1034 10 16.0934 0 0
1:56 pm 13:56 Sunny 10 -12.3 2 -16.7 70 70 W 8 13 30.5 1033 10 16.0934 0 0
2:56 pm 14:56 Sunny 13 -10.4 4 -15.3 68 68 WSW 7 11 30.5 1033 10 16.0934 0 0
3:56 pm 15:56 Sunny 20 -6.6 9 -13 61 61 W 9 15 30.5 1033 10 16.0934 0 0
4:56 pm 16:56 Sunny 25 -3.9 11 -11.8 55 55 W 10 17 30.48 1032 10 16.0934 0 0
5:56 pm 17:56 Sunny 29 -1.5 13 -10.3 52 52 W 13 20 30.44 1031 10 16.0934 0 0
7:56 pm 19:56 Mostly Cloudy 34 1.1 17 -8.3 50 50 NW 26 43 30.37 1029 10 16.0934 0 0
8:56 pm 20:56 Mostly Cloudy 34 0.9 19 -7.2 55 55 NW 23 37 30.38 1029 10 16.0934 0 0
9:56 pm 21:56 Mostly Cloudy 33 0.8 20 -6.4 59 59 WNW 18 30 30.37 1028 10 16.0934 0 0
10:58 pm 22:58 Mostly Cloudy 36 2.1 21 -6.3 54 54 NW 17 28 30.27 1025 10 16.0934 0 0
11:58 pm 23:58 Partly Cloudy 35 1.5 20 -6.4 56 56 WNW 13 20 30.27 1025 10 16.0934 0 0

Powered by AerisWeather